Time;durP1;ratioP1;P1;durP2;ratioP2;P2;SDS_P1;SDS_P2;PMS_P1;PMS_P2;Temp;Humidity;BMP_temperature;BMP_pressure;BME280_temperature;BME280_humidity;BME280_pressure;Samples;Min_cycle;Max_cycle;Signal;HPM_P1;HPM_P2
2022/11/01 00:02:02;;;;;;;209.63;51.40;;;;;;;;;;4990551;28;20058;-45
2022/11/01 00:04:28;;;;;;;270.08;57.28;;;;;;;;;;4990856;28;20651;-44
2022/11/01 00:06:55;;;;;;;319.98;61.03;;;;;;;;;;4990484;28;20046;-43
2022/11/01 00:09:22;;;;;;;196.30;49.65;;;;;;;;;;4990773;28;20144;-45
2022/11/01 00:11:48;;;;;;;246.40;55.25;;;;;;;;;;4990409;28;20038;-44
2022/11/01 00:14:16;;;;;;;168.85;44.25;;;;;;;;;;4990414;28;20042;-46
2022/11/01 00:16:42;;;;;;;240.13;54.45;;;;;;;;;;4990373;28;20053;-45
2022/11/01 00:19:09;;;;;;;150.52;40.45;;;;;;;;;;4990558;28;20046;-45
2022/11/01 00:21:36;;;;;;;157.02;43.80;;;;;;;;;;4990377;28;20125;-45
2022/11/01 00:24:02;;;;;;;207.48;48.42;;;;;;;;;;4990638;28;20054;-44
2022/11/01 00:26:29;;;;;;;249.85;52.78;;;;;;;;;;4990980;28;20053;-44
2022/11/01 00:28:55;;;;;;;190.40;47.28;;;;;;;;;;4990413;28;20030;-45
2022/11/01 00:31:22;;;;;;;140.82;40.28;;;;;;;;;;4990078;28;20428;-44
2022/11/01 00:33:49;;;;;;;211.10;47.83;;;;;;;;;;4990362;28;20030;-44
2022/11/01 00:36:15;;;;;;;131.90;39.60;;;;;;;;;;4990490;28;20073;-47
2022/11/01 00:38:42;;;;;;;161.32;43.00;;;;;;;;;;4990348;28;20038;-45
2022/11/01 00:41:08;;;;;;;123.78;37.33;;;;;;;;;;4990200;28;20049;-45
2022/11/01 00:43:35;;;;;;;178.38;46.35;;;;;;;;;;4989978;28;20042;-45
2022/11/01 00:46:02;;;;;;;192.15;46.35;;;;;;;;;;4972393;28;20388;-45
2022/11/01 00:48:29;;;;;;;195.13;46.42;;;;;;;;;;4990853;28;20056;-43
2022/11/01 00:50:55;;;;;;;199.93;48.65;;;;;;;;;;4990332;28;20038;-45
2022/11/01 00:53:22;;;;;;;174.40;43.25;;;;;;;;;;4989603;28;20038;-45
2022/11/01 00:55:48;;;;;;;147.10;39.50;;;;;;;;;;4989603;28;20098;-46
2022/11/01 00:58:15;;;;;;;246.45;50.42;;;;;;;;;;4989970;28;20144;-45
2022/11/01 01:00:42;;;;;;;228.18;48.28;;;;;;;;;;4989678;28;20043;-44
2022/11/01 01:03:08;;;;;;;168.10;41.90;;;;;;;;;;4990665;28;20074;-44
2022/11/01 01:05:35;;;;;;;117.90;35.67;;;;;;;;;;4989690;28;20122;-44
2022/11/01 01:08:02;;;;;;;140.82;38.47;;;;;;;;;;4989153;28;20050;-45
2022/11/01 01:10:28;;;;;;;134.00;37.33;;;;;;;;;;4989579;28;20043;-45
2022/11/01 01:12:55;;;;;;;107.65;33.83;;;;;;;;;;4989492;28;20050;-45
2022/11/01 01:15:21;;;;;;;178.75;41.53;;;;;;;;;;4989694;28;20383;-44
2022/11/01 01:17:48;;;;;;;163.85;40.60;;;;;;;;;;4989604;28;20065;-44
2022/11/01 01:20:14;;;;;;;221.45;46.13;;;;;;;;;;4989197;28;20042;-44
2022/11/01 01:22:41;;;;;;;157.05;39.20;;;;;;;;;;4988744;28;20533;-45
2022/11/01 01:25:09;;;;;;;271.65;50.20;;;;;;;;;;4989524;28;20049;-45
2022/11/01 01:27:35;;;;;;;172.35;41.60;;;;;;;;;;4990254;28;20050;-45
2022/11/01 01:30:03;;;;;;;151.10;39.30;;;;;;;;;;4989964;28;20046;-45
2022/11/01 01:32:29;;;;;;;134.73;36.28;;;;;;;;;;4989461;28;20042;-46
2022/11/01 01:34:56;;;;;;;143.27;36.95;;;;;;;;;;4989459;28;20128;-46
2022/11/01 01:37:22;;;;;;;174.30;41.25;;;;;;;;;;4989106;28;20126;-45
2022/11/01 01:39:49;;;;;;;120.30;33.33;;;;;;;;;;4989541;28;20112;-44
2022/11/01 01:42:23;;;;;;;145.38;36.38;;;;;;;;;;4989917;28;20046;-46
2022/11/01 01:45:09;;;;;;;159.30;38.45;;;;;;;;;;4989570;28;20120;-44
2022/11/01 01:47:37;;;;;;;148.98;36.40;;;;;;;;;;4989110;28;20411;-44
2022/11/01 01:50:04;;;;;;;184.50;42.47;;;;;;;;;;4989504;28;20038;-45
2022/11/01 01:52:31;;;;;;;104.88;30.67;;;;;;;;;;4988675;28;20038;-44
2022/11/01 01:54:59;;;;;;;141.43;33.83;;;;;;;;;;4989218;28;20578;-46
2022/11/01 01:57:25;;;;;;;114.82;32.08;;;;;;;;;;4990033;28;20046;-45
2022/11/01 01:59:52;;;;;;;131.32;34.88;;;;;;;;;;4988779;28;20727;-45
2022/11/01 02:02:20;;;;;;;141.30;35.03;;;;;;;;;;4988615;28;20066;-45
2022/11/01 02:04:49;;;;;;;110.78;31.33;;;;;;;;;;4989378;28;20046;-45
2022/11/01 02:07:16;;;;;;;156.77;38.10;;;;;;;;;;4987975;28;20137;-45
2022/11/01 02:09:43;;;;;;;133.07;35.85;;;;;;;;;;4988777;28;20051;-44
2022/11/01 02:12:11;;;;;;;90.07;25.75;;;;;;;;;;4989256;28;20408;-45
2022/11/01 02:14:41;;;;;;;85.38;25.20;;;;;;;;;;4989029;28;20050;-44
2022/11/01 02:17:11;;;;;;;159.10;35.97;;;;;;;;;;4988925;28;20045;-45
2022/11/01 02:19:56;;;;;;;83.80;25.58;;;;;;;;;;4988782;28;20042;-45
2022/11/01 02:22:49;;;;;;;112.72;31.00;;;;;;;;;;4988458;28;20502;-46
2022/11/01 02:25:34;;;;;;;96.30;28.45;;;;;;;;;;4927857;29;20524;-45
2022/11/01 02:28:09;;;;;;;89.50;27.60;;;;;;;;;;4931403;29;20058;-45
2022/11/01 02:30:58;;;;;;;121.60;32.97;;;;;;;;;;4931863;29;20058;-45
2022/11/01 02:33:29;;;;;;;89.07;26.67;;;;;;;;;;4932950;29;20044;-45
2022/11/01 02:36:04;;;;;;;94.97;29.70;;;;;;;;;;4932431;29;20459;-45
2022/11/01 02:38:41;;;;;;;89.75;28.98;;;;;;;;;;4931646;29;20044;-45
2022/11/01 02:41:16;;;;;;;104.65;29.45;;;;;;;;;;4932253;29;20047;-45
2022/11/01 02:43:52;;;;;;;59.83;21.48;;;;;;;;;;4932155;29;20115;-44
2022/11/01 02:49:05;;;;;;;111.80;30.05;;;;;;;;;;4931388;29;20060;-46
2022/11/01 02:51:33;;;;;;;87.15;27.48;;;;;;;;;;4932193;29;20619;-44
2022/11/01 02:54:00;;;;;;;73.00;24.33;;;;;;;;;;4932155;29;20515;-47
2022/11/01 02:56:27;;;;;;;98.75;26.05;;;;;;;;;;4931201;29;20044;-45
2022/11/01 02:58:54;;;;;;;73.97;23.10;;;;;;;;;;4931793;29;20717;-44
2022/11/01 03:01:22;;;;;;;142.70;33.65;;;;;;;;;;4941299;28;20065;-45
2022/11/01 03:03:51;;;;;;;92.63;23.27;;;;;;;;;;4992091;28;20053;-44
2022/11/01 03:06:31;;;;;;;77.25;23.33;;;;;;;;;;4991928;28;20121;-45
2022/11/01 03:09:03;;;;;;;94.25;24.60;;;;;;;;;;4992063;28;20047;-48
2022/11/01 03:11:59;;;;;;;108.60;29.48;;;;;;;;;;4991796;28;20042;-44
2022/11/01 03:14:47;;;;;;;161.73;37.67;;;;;;;;;;4978456;28;20594;-46
2022/11/01 03:17:22;;;;;;;240.10;42.22;;;;;;;;;;4991893;28;20049;-45
2022/11/01 03:19:51;;;;;;;141.68;35.60;;;;;;;;;;4991294;28;20138;-46
2022/11/01 03:22:26;;;;;;;123.63;31.92;;;;;;;;;;4991182;28;20394;-45
2022/11/01 03:25:36;;;;;;;135.52;31.58;;;;;;;;;;4991755;28;20384;-44
2022/11/01 03:27:54;;;;;;;191.40;39.70;;;;;;;;;;4990478;28;20510;-45
2022/11/01 03:30:21;;;;;;;264.58;46.88;;;;;;;;;;4991673;28;20042;-46
2022/11/01 03:32:52;;;;;;;120.78;30.00;;;;;;;;;;4991027;28;20038;-44
2022/11/01 03:35:24;;;;;;;139.18;35.22;;;;;;;;;;4990831;28;20089;-45
2022/11/01 03:37:53;;;;;;;107.35;30.08;;;;;;;;;;4990454;28;20081;-44
2022/11/01 03:40:22;;;;;;;97.35;27.30;;;;;;;;;;4991403;28;20498;-46
2022/11/01 03:42:49;;;;;;;156.63;33.20;;;;;;;;;;4990642;28;20404;-45
2022/11/01 03:45:19;;;;;;;180.80;39.00;;;;;;;;;;4992137;28;20042;-45
2022/11/01 03:47:46;;;;;;;188.30;46.58;;;;;;;;;;4991073;28;20129;-47
2022/11/01 03:50:14;;;;;;;136.65;33.97;;;;;;;;;;4990462;28;20046;-44
2022/11/01 03:52:41;;;;;;;136.57;34.30;;;;;;;;;;4990855;28;20832;-45
2022/11/01 03:55:17;;;;;;;162.43;40.85;;;;;;;;;;4991587;28;20040;-44
2022/11/01 03:57:54;;;;;;;376.10;61.92;;;;;;;;;;4991138;28;20096;-43
2022/11/01 04:00:20;;;;;;;413.52;71.63;;;;;;;;;;4991663;28;20050;-43
2022/11/01 04:02:47;;;;;;;163.60;35.95;;;;;;;;;;4991037;28;20462;-43
2022/11/01 04:05:14;;;;;;;145.90;34.55;;;;;;;;;;4991106;28;20045;-44
2022/11/01 04:07:42;;;;;;;144.00;35.78;;;;;;;;;;4990487;28;20058;-43
2022/11/01 04:10:08;;;;;;;225.18;44.03;;;;;;;;;;4990493;28;20047;-43
2022/11/01 04:12:35;;;;;;;419.00;62.00;;;;;;;;;;4990755;28;20051;-42
2022/11/01 04:20:33;;;;;;;150.75;34.45;;;;;;;;;;4990364;28;20494;-43
2022/11/01 04:22:59;;;;;;;338.13;53.35;;;;;;;;;;4989955;28;20038;-44
2022/11/01 04:25:27;;;;;;;202.90;41.13;;;;;;;;;;4990837;28;20725;-44
2022/11/01 04:27:56;;;;;;;158.90;32.67;;;;;;;;;;4989799;28;20077;-43
2022/11/01 04:30:23;;;;;;;125.55;27.35;;;;;;;;;;4990639;28;20089;-44
2022/11/01 04:32:50;;;;;;;238.68;42.45;;;;;;;;;;4990133;28;20155;-44
2022/11/01 04:35:17;;;;;;;126.97;27.95;;;;;;;;;;4989937;28;20049;-43
2022/11/01 04:37:43;;;;;;;192.43;39.55;;;;;;;;;;4989878;28;20046;-43
2022/11/01 04:40:11;;;;;;;156.63;33.50;;;;;;;;;;4989973;28;20042;-43
2022/11/01 04:42:38;;;;;;;184.98;40.42;;;;;;;;;;4990195;28;20049;-45
2022/11/01 04:45:05;;;;;;;103.65;27.92;;;;;;;;;;4989409;28;20065;-43
2022/11/01 04:47:32;;;;;;;188.32;38.70;;;;;;;;;;4990401;28;20045;-46
2022/11/01 04:49:58;;;;;;;123.47;28.38;;;;;;;;;;4989281;28;20049;-43
2022/11/01 04:52:25;;;;;;;136.20;33.22;;;;;;;;;;4989827;28;20129;-44
2022/11/01 04:54:52;;;;;;;146.40;32.00;;;;;;;;;;4990365;28;20108;-44
2022/11/01 04:57:24;;;;;;;136.65;32.72;;;;;;;;;;4990050;28;20050;-44
2022/11/01 04:59:51;;;;;;;248.77;47.08;;;;;;;;;;4990010;28;20040;-43
2022/11/01 05:02:19;;;;;;;301.10;54.10;;;;;;;;;;4989400;28;20046;-44
2022/11/01 05:04:46;;;;;;;116.68;31.58;;;;;;;;;;4989824;28;20042;-45
2022/11/01 05:07:12;;;;;;;193.80;39.65;;;;;;;;;;4989687;28;20126;-43
2022/11/01 05:09:39;;;;;;;218.65;42.53;;;;;;;;;;4990204;28;20057;-44
2022/11/01 05:12:07;;;;;;;263.42;46.45;;;;;;;;;;4989897;28;20046;-45
2022/11/01 05:14:33;;;;;;;395.02;59.60;;;;;;;;;;4989691;28;20046;-44
2022/11/01 05:17:00;;;;;;;176.18;36.53;;;;;;;;;;4989715;28;20038;-47
2022/11/01 05:19:26;;;;;;;81.63;24.52;;;;;;;;;;4989626;28;20109;-42
2022/11/01 05:21:53;;;;;;;141.63;29.25;;;;;;;;;;4989447;28;20044;-43
2022/11/01 05:24:20;;;;;;;97.15;26.33;;;;;;;;;;4989302;28;20435;-43
2022/11/01 05:26:48;;;;;;;153.75;34.08;;;;;;;;;;4989088;28;20076;-42
2022/11/01 05:29:14;;;;;;;132.15;27.40;;;;;;;;;;4989230;28;20050;-46
2022/11/01 05:31:57;;;;;;;270.70;41.42;;;;;;;;;;4989113;28;20141;-47
2022/11/01 05:34:24;;;;;;;166.63;30.02;;;;;;;;;;4989244;28;20044;-44
2022/11/01 05:36:50;;;;;;;515.40;68.40;;;;;;;;;;4989088;28;20056;-45
2022/11/01 05:39:17;;;;;;;170.82;36.15;;;;;;;;;;4990078;28;20053;-47
2022/11/01 05:41:43;;;;;;;179.88;39.30;;;;;;;;;;4987616;28;20054;-44
2022/11/01 05:44:10;;;;;;;281.95;49.08;;;;;;;;;;4989120;28;20423;-45
2022/11/01 05:46:36;;;;;;;150.55;30.05;;;;;;;;;;4989333;28;20050;-42
2022/11/01 05:49:03;;;;;;;202.13;37.78;;;;;;;;;;4989519;28;20454;-43
2022/11/01 05:51:29;;;;;;;392.23;52.10;;;;;;;;;;4990357;28;20042;-43
2022/11/01 05:53:56;;;;;;;319.25;47.65;;;;;;;;;;4989114;28;20173;-44
2022/11/01 05:56:22;;;;;;;387.77;55.05;;;;;;;;;;4987852;28;20054;-44
2022/11/01 05:58:49;;;;;;;258.35;31.60;;;;;;;;;;4989418;28;20054;-43
2022/11/01 06:01:16;;;;;;;197.95;35.35;;;;;;;;;;4990080;28;20057;-46
2022/11/01 06:03:43;;;;;;;223.18;36.85;;;;;;;;;;4993206;28;20509;-43
2022/11/01 06:06:10;;;;;;;137.00;26.08;;;;;;;;;;4992993;28;20089;-47
2022/11/01 06:08:37;;;;;;;402.25;56.17;;;;;;;;;;4992493;28;20054;-43
2022/11/01 06:11:04;;;;;;;257.48;40.83;;;;;;;;;;4993199;28;20478;-42
2022/11/01 06:13:32;;;;;;;347.77;45.92;;;;;;;;;;4992774;28;20038;-42
2022/11/01 06:16:03;;;;;;;224.57;36.40;;;;;;;;;;4992686;28;20039;-43
2022/11/01 06:18:29;;;;;;;153.13;31.92;;;;;;;;;;4993514;28;20050;-44
2022/11/01 06:20:56;;;;;;;154.05;34.35;;;;;;;;;;4993293;28;20038;-44
2022/11/01 06:23:23;;;;;;;171.23;32.38;;;;;;;;;;4992245;28;20049;-44
2022/11/01 06:25:49;;;;;;;193.77;30.58;;;;;;;;;;4992747;28;20046;-43
2022/11/01 06:28:16;;;;;;;296.50;43.83;;;;;;;;;;4992533;28;20046;-44
2022/11/01 06:30:42;;;;;;;110.32;24.77;;;;;;;;;;4993182;28;20046;-42
2022/11/01 06:33:09;;;;;;;286.67;39.47;;;;;;;;;;4996054;28;20056;-44
2022/11/01 06:35:36;;;;;;;266.42;42.80;;;;;;;;;;4995470;28;20130;-43
2022/11/01 06:38:06;;;;;;;83.32;21.45;;;;;;;;;;4992066;28;20046;-43
2022/11/01 06:40:33;;;;;;;147.30;29.67;;;;;;;;;;4992850;28;20089;-43
2022/11/01 06:43:00;;;;;;;120.00;24.92;;;;;;;;;;4992263;28;20046;-45
2022/11/01 06:45:28;;;;;;;382.05;47.90;;;;;;;;;;4993291;28;20073;-46
2022/11/01 06:47:54;;;;;;;140.15;25.05;;;;;;;;;;4992297;28;20483;-45
2022/11/01 06:50:21;;;;;;;97.65;23.90;;;;;;;;;;4991101;28;20466;-45
2022/11/01 06:52:48;;;;;;;135.05;27.40;;;;;;;;;;4992045;28;20043;-44
2022/11/01 06:55:14;;;;;;;158.98;28.38;;;;;;;;;;4992068;28;20049;-44
2022/11/01 06:57:41;;;;;;;152.18;30.85;;;;;;;;;;4992432;28;20519;-45
2022/11/01 07:00:08;;;;;;;330.55;50.88;;;;;;;;;;4992270;28;20153;-44
2022/11/01 07:02:35;;;;;;;300.02;45.88;;;;;;;;;;4991899;28;20133;-44
2022/11/01 07:05:01;;;;;;;239.15;40.13;;;;;;;;;;4992419;28;20038;-45
2022/11/01 07:07:28;;;;;;;96.95;23.95;;;;;;;;;;4991907;28;20050;-44
2022/11/01 07:09:54;;;;;;;160.00;28.58;;;;;;;;;;4991819;28;20046;-46
2022/11/01 07:12:21;;;;;;;366.55;42.30;;;;;;;;;;4991657;28;20034;-45
2022/11/01 07:14:47;;;;;;;136.05;21.88;;;;;;;;;;4992058;28;20487;-45
2022/11/01 07:17:14;;;;;;;206.88;25.20;;;;;;;;;;4992074;28;20042;-44
2022/11/01 07:19:40;;;;;;;222.07;26.33;;;;;;;;;;4990407;28;20055;-43
2022/11/01 07:22:07;;;;;;;164.93;30.35;;;;;;;;;;4991211;28;20053;-43
2022/11/01 07:24:34;;;;;;;98.93;19.75;;;;;;;;;;4992305;28;20117;-45
2022/11/01 07:27:00;;;;;;;102.53;21.23;;;;;;;;;;4991455;28;20050;-43
2022/11/01 07:29:26;;;;;;;214.77;36.92;;;;;;;;;;4990809;28;20130;-45
2022/11/01 07:31:53;;;;;;;297.23;42.60;;;;;;;;;;4990527;28;20511;-45
2022/11/01 07:34:20;;;;;;;96.97;27.08;;;;;;;;;;4984798;28;20046;-47
2022/11/01 07:36:46;;;;;;;100.05;23.65;;;;;;;;;;4990605;28;20046;-44
2022/11/01 07:39:13;;;;;;;167.43;32.65;;;;;;;;;;4990545;28;20038;-44
2022/11/01 07:41:39;;;;;;;116.53;22.35;;;;;;;;;;4990915;28;20042;-44
2022/11/01 07:44:06;;;;;;;88.13;20.63;;;;;;;;;;4991312;28;20039;-45
2022/11/01 07:46:32;;;;;;;120.07;23.70;;;;;;;;;;4990196;28;20046;-45
2022/11/01 07:48:59;;;;;;;140.88;26.92;;;;;;;;;;4991144;28;20072;-44
2022/11/01 07:51:27;;;;;;;100.88;24.58;;;;;;;;;;4992025;28;20066;-47
2022/11/01 07:53:53;;;;;;;109.38;26.52;;;;;;;;;;4991333;28;20450;-47
2022/11/01 07:56:20;;;;;;;132.18;31.65;;;;;;;;;;4989853;28;20060;-46
2022/11/01 07:58:47;;;;;;;102.97;26.23;;;;;;;;;;4989679;28;20549;-45
2022/11/01 08:01:14;;;;;;;93.90;26.13;;;;;;;;;;4989807;28;20371;-46
2022/11/01 08:03:40;;;;;;;144.27;30.30;;;;;;;;;;4989860;28;20081;-43
2022/11/01 08:06:07;;;;;;;95.57;22.17;;;;;;;;;;4990469;28;20042;-43
2022/11/01 08:08:33;;;;;;;142.10;29.67;;;;;;;;;;4989910;28;20113;-45
2022/11/01 08:11:00;;;;;;;99.30;23.95;;;;;;;;;;4990461;28;20122;-45
2022/11/01 08:13:27;;;;;;;143.68;30.65;;;;;;;;;;4990954;28;20046;-45
2022/11/01 08:15:53;;;;;;;99.25;20.23;;;;;;;;;;4991194;28;20226;-46
2022/11/01 08:18:21;;;;;;;88.75;21.95;;;;;;;;;;4991013;28;20121;-44
2022/11/01 08:20:48;;;;;;;79.15;22.67;;;;;;;;;;4990786;28;20043;-45
2022/11/01 08:23:14;;;;;;;75.65;21.10;;;;;;;;;;4990501;28;20460;-46
2022/11/01 08:25:41;;;;;;;109.03;28.50;;;;;;;;;;4990517;28;20046;-44
2022/11/01 08:28:10;;;;;;;128.98;32.42;;;;;;;;;;4990505;28;20504;-44
2022/11/01 08:30:38;;;;;;;66.32;20.35;;;;;;;;;;4990149;28;20042;-44
2022/11/01 08:33:04;;;;;;;106.10;27.08;;;;;;;;;;4990035;28;20391;-44
2022/11/01 08:35:32;;;;;;;56.17;20.10;;;;;;;;;;4990253;28;20046;-46
2022/11/01 08:38:00;;;;;;;77.25;23.50;;;;;;;;;;4989218;28;20038;-47
2022/11/01 08:40:29;;;;;;;70.63;22.15;;;;;;;;;;4989607;28;20109;-47
2022/11/01 08:42:56;;;;;;;58.25;21.92;;;;;;;;;;4991054;28;20085;-43
2022/11/01 08:45:22;;;;;;;94.35;26.60;;;;;;;;;;4991390;28;20034;-43
2022/11/01 08:47:49;;;;;;;76.38;23.58;;;;;;;;;;4990159;28;20531;-46
2022/11/01 08:50:16;;;;;;;147.07;30.58;;;;;;;;;;4990235;28;20464;-44
2022/11/01 08:52:43;;;;;;;108.28;26.10;;;;;;;;;;4986216;28;20392;-45
2022/11/01 08:55:10;;;;;;;113.68;25.15;;;;;;;;;;4990302;28;23184;-45
2022/11/01 08:57:37;;;;;;;85.07;23.50;;;;;;;;;;4991149;28;20045;-47
2022/11/01 09:00:05;;;;;;;69.68;21.85;;;;;;;;;;4990750;28;20042;-45
2022/11/01 09:02:32;;;;;;;99.72;22.58;;;;;;;;;;4990054;28;20109;-45
2022/11/01 09:05:03;;;;;;;60.45;20.90;;;;;;;;;;4990534;28;20097;-45
2022/11/01 09:07:30;;;;;;;91.80;26.52;;;;;;;;;;4988330;28;20054;-44
2022/11/01 09:09:56;;;;;;;93.82;27.33;;;;;;;;;;4989567;28;20106;-44
2022/11/01 09:12:23;;;;;;;101.30;28.23;;;;;;;;;;4990406;28;20388;-46
2022/11/01 09:14:50;;;;;;;104.30;29.67;;;;;;;;;;4990097;28;20117;-45
2022/11/01 09:17:17;;;;;;;175.73;36.63;;;;;;;;;;4989408;28;20076;-43
2022/11/01 09:19:43;;;;;;;74.20;23.25;;;;;;;;;;4989735;28;20466;-40
2022/11/01 09:22:10;;;;;;;106.97;26.88;;;;;;;;;;4994020;28;20042;-49
2022/11/01 09:24:36;;;;;;;91.25;27.33;;;;;;;;;;4988726;28;20046;-45
2022/11/01 09:27:03;;;;;;;63.17;27.17;;;;;;;;;;4989623;28;20043;-52
2022/11/01 09:29:29;;;;;;;87.40;27.15;;;;;;;;;;4993806;28;20084;-53
2022/11/01 09:31:56;;;;;;;88.40;24.08;;;;;;;;;;4995431;28;20048;-54
2022/11/01 09:34:23;;;;;;;88.70;25.73;;;;;;;;;;4988908;28;20506;-51
2022/11/01 09:36:49;;;;;;;98.72;28.17;;;;;;;;;;4988675;28;20085;-57
2022/11/01 09:39:20;;;;;;;84.90;24.95;;;;;;;;;;4989332;28;21129;-56
2022/11/01 09:41:49;;;;;;;70.43;23.13;;;;;;;;;;4989352;28;20043;-59
2022/11/01 09:44:18;;;;;;;92.65;28.40;;;;;;;;;;4988737;28;20050;-48
2022/11/01 09:46:47;;;;;;;83.43;25.73;;;;;;;;;;4988478;28;20129;-49
2022/11/01 09:49:25;;;;;;;90.80;27.65;;;;;;;;;;4988962;28;20069;-48
2022/11/01 09:51:52;;;;;;;101.70;28.63;;;;;;;;;;4988771;28;20039;-48
2022/11/01 09:54:20;;;;;;;98.82;29.38;;;;;;;;;;4989891;28;20042;-49
2022/11/01 09:57:13;;;;;;;60.88;23.30;;;;;;;;;;4984619;28;20055;-49
2022/11/01 09:59:48;;;;;;;74.00;24.13;;;;;;;;;;4984712;28;20050;-48
2022/11/01 10:02:29;;;;;;;68.72;23.55;;;;;;;;;;4988844;28;20043;-51
2022/11/01 10:05:01;;;;;;;72.53;23.38;;;;;;;;;;4988980;28;20043;-48
2022/11/01 10:07:37;;;;;;;84.72;27.17;;;;;;;;;;4988725;28;20057;-48
2022/11/01 10:10:11;;;;;;;74.65;26.60;;;;;;;;;;4989137;28;20044;-50
2022/11/01 10:12:53;;;;;;;84.35;27.60;;;;;;;;;;4989513;28;20105;-48
2022/11/01 10:15:34;;;;;;;67.75;23.60;;;;;;;;;;4989482;28;20101;-48
2022/11/01 10:18:13;;;;;;;76.00;25.33;;;;;;;;;;4988982;28;20379;-49
2022/11/01 10:20:40;;;;;;;75.75;25.48;;;;;;;;;;4989105;28;20046;-47
2022/11/01 10:23:09;;;;;;;71.03;25.05;;;;;;;;;;4989356;28;20038;-47
2022/11/01 10:25:36;;;;;;;96.25;28.10;;;;;;;;;;4988852;28;20479;-49
2022/11/01 10:28:09;;;;;;;91.07;28.48;;;;;;;;;;4988556;28;20097;-49
2022/11/01 10:30:38;;;;;;;84.60;27.92;;;;;;;;;;4989882;28;20046;-48
2022/11/01 10:33:08;;;;;;;92.75;30.23;;;;;;;;;;4989109;28;20042;-48
2022/11/01 10:35:37;;;;;;;72.78;27.17;;;;;;;;;;4988358;28;20399;-49
2022/11/01 10:38:07;;;;;;;80.35;28.15;;;;;;;;;;4988169;28;20042;-47
2022/11/01 10:40:55;;;;;;;80.00;29.17;;;;;;;;;;4988676;28;20038;-49
2022/11/01 10:43:23;;;;;;;79.00;28.00;;;;;;;;;;4988696;28;20047;-48
2022/11/01 10:45:51;;;;;;;86.28;30.15;;;;;;;;;;4988526;28;20050;-48
2022/11/01 10:48:32;;;;;;;111.90;35.65;;;;;;;;;;4991248;28;20061;-47
2022/11/01 10:51:02;;;;;;;84.88;30.13;;;;;;;;;;4991395;28;20065;-50
2022/11/01 10:53:32;;;;;;;72.07;28.88;;;;;;;;;;4992023;28;20494;-47
2022/11/01 10:56:02;;;;;;;83.22;28.92;;;;;;;;;;4992516;28;20410;-48
2022/11/01 10:58:45;;;;;;;80.57;31.90;;;;;;;;;;4992105;28;20129;-48
2022/11/01 11:01:12;;;;;;;;;;;;;;;;;;4992711;28;20050;-49
2022/11/01 11:03:40;;;;;;;76.40;28.75;;;;;;;;;;4992249;28;19929;-46
2022/11/01 11:06:12;;;;;;;81.47;30.88;;;;;;;;;;4992644;28;20046;-46
2022/11/01 11:08:39;;;;;;;80.93;31.52;;;;;;;;;;4991764;28;20120;-48
2022/11/01 11:11:11;;;;;;;78.78;33.55;;;;;;;;;;4991987;28;20082;-47
2022/11/01 11:13:39;;;;;;;94.05;36.53;;;;;;;;;;4992343;28;20046;-37
2022/11/01 11:16:06;;;;;;;120.18;39.13;;;;;;;;;;4987100;28;20042;-37
2022/11/01 11:18:35;;;;;;;67.40;30.52;;;;;;;;;;4987916;28;20113;-37
2022/11/01 11:21:04;;;;;;;80.72;31.83;;;;;;;;;;4992017;28;20129;-38
2022/11/01 11:23:35;;;;;;;121.20;36.67;;;;;;;;;;4989612;28;20031;-37
2022/11/01 11:26:06;;;;;;;93.47;33.13;;;;;;;;;;4990001;28;20068;-37
2022/11/01 11:28:34;;;;;;;104.18;35.83;;;;;;;;;;4990850;28;20061;-37
2022/11/01 11:31:14;;;;;;;77.47;30.83;;;;;;;;;;4991333;28;20044;-36
2022/11/01 11:33:47;;;;;;;80.10;31.35;;;;;;;;;;4991068;28;20049;-36
2022/11/01 11:36:13;;;;;;;77.85;28.33;;;;;;;;;;4991564;28;20034;-36
2022/11/01 11:38:44;;;;;;;121.75;35.78;;;;;;;;;;4991238;28;20042;-36
2022/11/01 11:41:12;;;;;;;111.68;33.60;;;;;;;;;;4991127;28;20047;-36
2022/11/01 11:43:40;;;;;;;83.05;34.42;;;;;;;;;;4991568;28;20042;-36
2022/11/01 11:46:17;;;;;;;109.38;36.10;;;;;;;;;;4991821;28;20038;-36
2022/11/01 11:48:45;;;;;;;90.50;32.17;;;;;;;;;;4991789;28;20084;-36
2022/11/01 11:51:12;;;;;;;91.60;32.22;;;;;;;;;;4992117;28;20046;-36
2022/11/01 11:53:39;;;;;;;78.65;30.02;;;;;;;;;;4991358;28;20046;-36
2022/11/01 11:56:07;;;;;;;93.10;32.50;;;;;;;;;;4990977;28;20038;-36
2022/11/01 11:58:36;;;;;;;102.25;34.28;;;;;;;;;;4990874;28;20045;-36
2022/11/01 12:01:04;;;;;;;87.18;31.55;;;;;;;;;;4991548;28;20647;-36
2022/11/01 12:03:36;;;;;;;83.78;31.85;;;;;;;;;;4992028;28;20142;-36
2022/11/01 12:06:07;;;;;;;112.03;33.92;;;;;;;;;;4991456;28;20042;-36
2022/11/01 12:08:43;;;;;;;84.05;29.75;;;;;;;;;;4990268;28;20124;-36
2022/11/01 12:11:10;;;;;;;80.40;31.33;;;;;;;;;;4991085;28;20038;-36
2022/11/01 12:13:40;;;;;;;93.65;34.22;;;;;;;;;;4991157;28;20038;-36
2022/11/01 12:16:06;;;;;;;110.40;34.08;;;;;;;;;;4990786;28;20043;-36
2022/11/01 12:18:33;;;;;;;82.03;31.73;;;;;;;;;;4992088;28;20050;-36
2022/11/01 12:20:59;;;;;;;79.55;31.50;;;;;;;;;;4990646;28;20046;-36
2022/11/01 12:23:26;;;;;;;107.75;35.72;;;;;;;;;;4990511;28;20517;-36
2022/11/01 12:25:53;;;;;;;86.32;31.55;;;;;;;;;;4990087;28;20050;-36
2022/11/01 12:28:25;;;;;;;85.20;31.60;;;;;;;;;;4990946;28;20526;-36
2022/11/01 12:30:56;;;;;;;103.85;33.00;;;;;;;;;;4990823;28;20056;-36
2022/11/01 12:33:34;;;;;;;93.93;32.63;;;;;;;;;;4991123;28;20514;-36
2022/11/01 12:36:01;;;;;;;124.80;35.85;;;;;;;;;;4990539;28;20046;-36
2022/11/01 12:38:37;;;;;;;104.65;34.80;;;;;;;;;;4989956;28;20134;-36
2022/11/01 12:41:12;;;;;;;112.22;34.78;;;;;;;;;;4990024;28;20407;-36
2022/11/01 12:43:58;;;;;;;162.00;39.80;;;;;;;;;;4990289;28;20045;-36
2022/11/01 12:46:34;;;;;;;128.70;37.67;;;;;;;;;;4989717;28;20045;-36
2022/11/01 12:49:04;;;;;;;107.68;34.92;;;;;;;;;;4990312;28;20053;-36
2022/11/01 12:51:39;;;;;;;133.32;38.10;;;;;;;;;;4990943;28;20499;-36
2022/11/01 12:54:14;;;;;;;121.43;35.45;;;;;;;;;;4989791;28;20109;-35
2022/11/01 12:56:41;;;;;;;126.30;33.00;;;;;;;;;;4989787;28;20077;-36
2022/11/01 12:59:12;;;;;;;107.80;30.92;;;;;;;;;;4989714;28;20042;-36
2022/11/01 13:01:38;;;;;;;121.57;32.80;;;;;;;;;;4990171;28;20077;-36
2022/11/01 13:04:11;;;;;;;150.15;37.63;;;;;;;;;;4989782;28;20049;-36
2022/11/01 13:06:54;;;;;;;107.40;32.10;;;;;;;;;;4989404;28;20061;-37
2022/11/01 13:09:27;;;;;;;99.47;32.35;;;;;;;;;;4990202;28;20050;-36
2022/11/01 13:11:54;;;;;;;87.00;28.97;;;;;;;;;;4989220;28;20038;-36
2022/11/01 13:14:25;;;;;;;128.32;35.83;;;;;;;;;;4988026;28;20296;-36
2022/11/01 13:17:04;;;;;;;102.03;35.53;;;;;;;;;;4990460;28;20466;-36
2022/11/01 13:19:46;;;;;;;104.93;32.95;;;;;;;;;;4990506;28;20062;-37
2022/11/01 13:22:20;;;;;;;142.85;36.85;;;;;;;;;;4989896;28;20050;-36
2022/11/01 13:24:51;;;;;;;141.68;37.95;;;;;;;;;;4988670;28;20125;-36
2022/11/01 13:27:25;;;;;;;108.38;33.80;;;;;;;;;;4989842;28;20069;-36
2022/11/01 13:29:55;;;;;;;126.45;35.60;;;;;;;;;;4989742;28;20051;-36
2022/11/01 13:32:22;;;;;;;187.73;42.33;;;;;;;;;;4988934;28;20179;-36
2022/11/01 13:35:09;;;;;;;121.68;36.33;;;;;;;;;;4990017;28;20050;-36
2022/11/01 13:37:43;;;;;;;178.68;40.58;;;;;;;;;;4979640;28;20469;-37
2022/11/01 13:40:15;;;;;;;159.13;36.88;;;;;;;;;;4989369;28;20435;-36
2022/11/01 13:42:45;;;;;;;270.25;45.90;;;;;;;;;;4989909;28;20069;-36
2022/11/01 13:45:11;;;;;;;161.60;38.95;;;;;;;;;;4990197;28;20054;-35
2022/11/01 13:47:55;;;;;;;236.65;43.53;;;;;;;;;;4989649;28;20050;-36
2022/11/01 13:50:22;;;;;;;341.77;53.88;;;;;;;;;;4989476;28;20042;-36
2022/11/01 13:52:56;;;;;;;135.73;36.83;;;;;;;;;;4989253;28;20047;-36
2022/11/01 13:55:35;;;;;;;272.85;45.95;;;;;;;;;;4989111;28;20062;-36
2022/11/01 13:58:04;;;;;;;136.50;36.13;;;;;;;;;;4989335;28;20386;-36
2022/11/01 14:00:37;;;;;;;239.13;46.67;;;;;;;;;;4990302;28;20089;-36
2022/11/01 14:03:19;;;;;;;136.82;37.78;;;;;;;;;;4989504;28;20060;-36
2022/11/01 14:06:05;;;;;;;169.52;41.40;;;;;;;;;;4989393;28;20057;-36
2022/11/01 14:08:42;;;;;;;189.45;39.83;;;;;;;;;;4988923;28;20054;-36
2022/11/01 14:11:12;;;;;;;231.75;40.42;;;;;;;;;;4988969;28;20038;-36
2022/11/01 14:13:40;;;;;;;243.70;40.53;;;;;;;;;;4989216;28;20490;-36
2022/11/01 14:16:12;;;;;;;179.55;38.83;;;;;;;;;;4988955;28;20042;-36
2022/11/01 14:18:57;;;;;;;164.53;40.00;;;;;;;;;;4989946;28;20084;-36
2022/11/01 14:21:47;;;;;;;246.25;45.63;;;;;;;;;;4990005;28;20450;-36
2022/11/01 14:24:19;;;;;;;184.10;41.45;;;;;;;;;;4987516;28;20455;-36
2022/11/01 14:26:48;;;;;;;155.02;40.63;;;;;;;;;;4992826;28;20046;-35
2022/11/01 14:29:15;;;;;;;297.20;52.40;;;;;;;;;;4993104;28;20058;-36
2022/11/01 14:31:42;;;;;;;161.57;41.35;;;;;;;;;;4992721;28;20043;-35